sensor_id;sensor_type;location;lat;lon;timestamp;pressure;altitude;pressure_sealevel;temperature;humidity
12666;BME280;58531;59.050;17.416;2023-02-28T00:01:22;102143.38;;;-3.14;100.00
12666;BME280;58531;59.050;17.416;2023-02-28T00:03:49;102134.59;;;-3.18;100.00
12666;BME280;58531;59.050;17.416;2023-02-28T00:06:16;102138.28;;;-3.19;100.00
12666;BME280;58531;59.050;17.416;2023-02-28T00:08:43;102146.44;;;-3.21;100.00
12666;BME280;58531;59.050;17.416;2023-02-28T00:11:12;102139.84;;;-3.01;100.00
12666;BME280;58531;59.050;17.416;2023-02-28T00:13:42;102139.06;;;-3.02;100.00
12666;BME280;58531;59.050;17.416;2023-02-28T00:16:15;102148.78;;;-3.02;100.00
12666;BME280;58531;59.050;17.416;2023-02-28T00:18:42;102144.31;;;-3.02;100.00
12666;BME280;58531;59.050;17.416;2023-02-28T00:21:09;102137.72;;;-2.99;100.00
12666;BME280;58531;59.050;17.416;2023-02-28T00:23:36;102137.84;;;-3.04;100.00
12666;BME280;58531;59.050;17.416;2023-02-28T00:26:03;102139.06;;;-3.02;100.00
12666;BME280;58531;59.050;17.416;2023-02-28T00:28:30;102134.47;;;-3.05;100.00
12666;BME280;58531;59.050;17.416;2023-02-28T00:30:57;102143.69;;;-3.07;100.00
12666;BME280;58531;59.050;17.416;2023-02-28T00:33:26;102145.09;;;-3.10;100.00
12666;BME280;58531;59.050;17.416;2023-02-28T00:36:01;102140.16;;;-3.11;100.00
12666;BME280;58531;59.050;17.416;2023-02-28T00:38:29;102136.47;;;-3.10;100.00
12666;BME280;58531;59.050;17.416;2023-02-28T00:40:56;102136.94;;;-3.08;100.00
12666;BME280;58531;59.050;17.416;2023-02-28T00:43:23;102136.63;;;-3.07;100.00
12666;BME280;58531;59.050;17.416;2023-02-28T00:45:50;102132.16;;;-3.06;100.00
12666;BME280;58531;59.050;17.416;2023-02-28T00:48:17;102129.09;;;-3.08;100.00
12666;BME280;58531;59.050;17.416;2023-02-28T00:50:48;102140.47;;;-3.04;100.00
12666;BME280;58531;59.050;17.416;2023-02-28T00:53:15;102140.47;;;-3.04;100.00
12666;BME280;58531;59.050;17.416;2023-02-28T00:55:41;102138.31;;;-3.02;100.00
12666;BME280;58531;59.050;17.416;2023-02-28T00:58:08;102137.25;;;-3.01;100.00
12666;BME280;58531;59.050;17.416;2023-02-28T01:00:35;102131.09;;;-2.97;100.00
12666;BME280;58531;59.050;17.416;2023-02-28T01:03:02;102129.09;;;-2.91;100.00
12666;BME280;58531;59.050;17.416;2023-02-28T01:05:29;102130.16;;;-2.84;100.00
12666;BME280;58531;59.050;17.416;2023-02-28T01:07:57;102128.03;;;-2.82;100.00
12666;BME280;58531;59.050;17.416;2023-02-28T01:10:25;102121.56;;;-2.84;100.00
12666;BME280;58531;59.050;17.416;2023-02-28T01:12:56;102130.97;;;-2.83;100.00
12666;BME280;58531;59.050;17.416;2023-02-28T01:15:23;102131.84;;;-2.79;100.00
12666;BME280;58531;59.050;17.416;2023-02-28T01:17:50;102131.72;;;-2.83;100.00
12666;BME280;58531;59.050;17.416;2023-02-28T01:20:17;102137.56;;;-2.86;100.00
12666;BME280;58531;59.050;17.416;2023-02-28T01:22:43;102130.78;;;-2.87;100.00
12666;BME280;58531;59.050;17.416;2023-02-28T01:25:12;102129.25;;;-2.88;100.00
12666;BME280;58531;59.050;17.416;2023-02-28T01:27:38;102122.34;;;-2.92;100.00
12666;BME280;58531;59.050;17.416;2023-02-28T01:30:07;102113.88;;;-2.98;100.00
12666;BME280;58531;59.050;17.416;2023-02-28T01:32:34;102123.56;;;-3.07;100.00
12666;BME280;58531;59.050;17.416;2023-02-28T01:35:01;102112.34;;;-3.16;100.00
12666;BME280;58531;59.050;17.416;2023-02-28T01:37:28;102112.03;;;-3.23;100.00
12666;BME280;58531;59.050;17.416;2023-02-28T01:39:54;102108.78;;;-3.28;100.00
12666;BME280;58531;59.050;17.416;2023-02-28T01:42:23;102113.38;;;-3.25;100.00
12666;BME280;58531;59.050;17.416;2023-02-28T01:44:59;102118.63;;;-3.25;100.00
12666;BME280;58531;59.050;17.416;2023-02-28T01:47:29;102104.16;;;-3.31;100.00
12666;BME280;58531;59.050;17.416;2023-02-28T01:49:58;102100.78;;;-3.32;100.00
12666;BME280;58531;59.050;17.416;2023-02-28T01:52:27;102099.88;;;-3.27;100.00
12666;BME280;58531;59.050;17.416;2023-02-28T01:54:56;102109.41;;;-3.23;100.00
12666;BME280;58531;59.050;17.416;2023-02-28T01:57:30;102108.16;;;-3.25;100.00
12666;BME280;58531;59.050;17.416;2023-02-28T02:00:06;102107.41;;;-3.17;100.00
12666;BME280;58531;59.050;17.416;2023-02-28T02:02:36;102113.09;;;-3.15;100.00
12666;BME280;58531;59.050;17.416;2023-02-28T02:05:06;102122.47;;;-3.14;100.00
12666;BME280;58531;59.050;17.416;2023-02-28T02:07:35;102113.72;;;-3.18;100.00
12666;BME280;58531;59.050;17.416;2023-02-28T02:10:06;102123.88;;;-3.17;100.00
12666;BME280;58531;59.050;17.416;2023-02-28T02:12:56;102124.16;;;-3.18;100.00
12666;BME280;58531;59.050;17.416;2023-02-28T02:15:33;102126.78;;;-3.18;100.00
12666;BME280;58531;59.050;17.416;2023-02-28T02:18:04;102123.53;;;-3.15;100.00
12666;BME280;58531;59.050;17.416;2023-02-28T02:21:00;102135.09;;;-2.99;100.00
12666;BME280;58531;59.050;17.416;2023-02-28T02:27:02;102132.91;;;-3.14;100.00
12666;BME280;58531;59.050;17.416;2023-02-28T02:29:57;102129.38;;;-3.18;100.00
12666;BME280;58531;59.050;17.416;2023-02-28T02:32:49;102126.91;;;-3.23;100.00
12666;BME280;58531;59.050;17.416;2023-02-28T02:35:27;102127.84;;;-3.19;100.00
12666;BME280;58531;59.050;17.416;2023-02-28T02:38:03;102125.38;;;-3.24;100.00
12666;BME280;58531;59.050;17.416;2023-02-28T02:40:36;102132.13;;;-3.23;100.00
12666;BME280;58531;59.050;17.416;2023-02-28T02:43:07;102128.13;;;-3.29;100.00
12666;BME280;58531;59.050;17.416;2023-02-28T02:45:42;102126.91;;;-3.23;100.00
12666;BME280;58531;59.050;17.416;2023-02-28T02:48:12;102123.22;;;-3.22;100.00
12666;BME280;58531;59.050;17.416;2023-02-28T02:50:45;102125.97;;;-3.27;100.00
12666;BME280;58531;59.050;17.416;2023-02-28T02:53:16;102118.31;;;-3.32;100.00
12666;BME280;58531;59.050;17.416;2023-02-28T02:55:47;102107.56;;;-3.39;100.00
12666;BME280;58531;59.050;17.416;2023-02-28T02:58:21;102117.66;;;-3.46;100.00
12666;BME280;58531;59.050;17.416;2023-02-28T03:00:53;102109.50;;;-3.53;100.00
12666;BME280;58531;59.050;17.416;2023-02-28T03:03:21;102107.34;;;-3.59;100.00
12666;BME280;58531;59.050;17.416;2023-02-28T03:05:57;102106.56;;;-3.60;100.00
12666;BME280;58531;59.050;17.416;2023-02-28T03:08:23;102112.88;;;-3.61;100.00
12666;BME280;58531;59.050;17.416;2023-02-28T03:10:51;102113.00;;;-3.66;100.00
12666;BME280;58531;59.050;17.416;2023-02-28T03:13:42;102106.84;;;-3.70;100.00
12666;BME280;58531;59.050;17.416;2023-02-28T03:16:29;102108.72;;;-3.70;100.00
12666;BME280;58531;59.050;17.416;2023-02-28T03:19:06;102103.31;;;-3.74;100.00
12666;BME280;58531;59.050;17.416;2023-02-28T03:21:43;102103.50;;;-3.53;100.00
12666;BME280;58531;59.050;17.416;2023-02-28T03:24:19;102102.75;;;-3.46;100.00
12666;BME280;58531;59.050;17.416;2023-02-28T03:26:54;102099.09;;;-3.36;100.00
12666;BME280;58531;59.050;17.416;2023-02-28T03:29:28;102094.78;;;-3.41;100.00
12666;BME280;58531;59.050;17.416;2023-02-28T03:32:00;102094.03;;;-3.41;100.00
12666;BME280;58531;59.050;17.416;2023-02-28T03:34:33;102090.97;;;-3.43;100.00
12666;BME280;58531;59.050;17.416;2023-02-28T03:37:05;102099.41;;;-3.46;100.00
12666;BME280;58531;59.050;17.416;2023-02-28T03:39:36;102094.59;;;-3.53;100.00
12666;BME280;58531;59.050;17.416;2023-02-28T03:42:08;102095.06;;;-3.51;100.00
12666;BME280;58531;59.050;17.416;2023-02-28T03:44:40;102095.53;;;-3.49;100.00
12666;BME280;58531;59.050;17.416;2023-02-28T03:47:09;102094.13;;;-3.54;100.00
12666;BME280;58531;59.050;17.416;2023-02-28T03:49:42;102094.97;;;-3.37;100.00
12666;BME280;58531;59.050;17.416;2023-02-28T03:52:12;102098.19;;;-3.32;100.00
12666;BME280;58531;59.050;17.416;2023-02-28T03:54:42;102092.50;;;-3.25;100.00
12666;BME280;58531;59.050;17.416;2023-02-28T03:57:15;102093.09;;;-3.28;100.00
12666;BME280;58531;59.050;17.416;2023-02-28T03:59:47;102093.41;;;-3.38;100.00
12666;BME280;58531;59.050;17.416;2023-02-28T04:02:15;102085.88;;;-3.48;100.00
12666;BME280;58531;59.050;17.416;2023-02-28T04:04:42;102085.09;;;-3.57;100.00
12666;BME280;58531;59.050;17.416;2023-02-28T04:07:15;102081.06;;;-3.63;100.00
12666;BME280;58531;59.050;17.416;2023-02-28T04:09:42;102076.00;;;-3.68;100.00
12666;BME280;58531;59.050;17.416;2023-02-28T04:12:09;102072.91;;;-3.70;100.00
12666;BME280;58531;59.050;17.416;2023-02-28T04:14:36;102078.75;;;-3.73;100.00
12666;BME280;58531;59.050;17.416;2023-02-28T04:17:03;102082.44;;;-3.74;100.00
12666;BME280;58531;59.050;17.416;2023-02-28T04:19:30;102083.50;;;-3.75;100.00
12666;BME280;58531;59.050;17.416;2023-02-28T04:21:57;102082.56;;;-3.79;100.00
12666;BME280;58531;59.050;17.416;2023-02-28T04:24:27;102089.31;;;-3.78;100.00
12666;BME280;58531;59.050;17.416;2023-02-28T04:26:56;102102.69;;;-3.79;100.00
12666;BME280;58531;59.050;17.416;2023-02-28T04:29:25;102092.69;;;-3.86;100.00
12666;BME280;58531;59.050;17.416;2023-02-28T04:31:52;102086.25;;;-3.80;100.00
12666;BME280;58531;59.050;17.416;2023-02-28T04:34:19;102082.56;;;-3.79;100.00
12666;BME280;58531;59.050;17.416;2023-02-28T04:36:47;102072.44;;;-3.72;100.00
12666;BME280;58531;59.050;17.416;2023-02-28T04:39:14;102076.31;;;-3.61;100.00
12666;BME280;58531;59.050;17.416;2023-02-28T04:41:45;102070.50;;;-3.58;100.00
12666;BME280;58531;59.050;17.416;2023-02-28T04:44:12;102074.81;;;-3.45;100.00
12666;BME280;58531;59.050;17.416;2023-02-28T04:46:39;102075.28;;;-3.43;100.00
12666;BME280;58531;59.050;17.416;2023-02-28T04:49:05;102080.94;;;-3.50;100.00
12666;BME280;58531;59.050;17.416;2023-02-28T04:51:32;102074.34;;;-3.47;100.00
12666;BME280;58531;59.050;17.416;2023-02-28T04:53:59;102073.44;;;-3.43;100.00
12666;BME280;58531;59.050;17.416;2023-02-28T04:56:26;102076.69;;;-3.37;100.00
12666;BME280;58531;59.050;17.416;2023-02-28T04:58:54;102075.16;;;-3.38;100.00
12666;BME280;58531;59.050;17.416;2023-02-28T05:01:23;102081.13;;;-3.38;100.00
12666;BME280;58531;59.050;17.416;2023-02-28T05:03:51;102084.81;;;-3.30;100.00
12666;BME280;58531;59.050;17.416;2023-02-28T05:06:18;102086.34;;;-3.29;100.00
12666;BME280;58531;59.050;17.416;2023-02-28T05:08:46;102092.97;;;-3.32;100.00
12666;BME280;58531;59.050;17.416;2023-02-28T05:11:18;102089.28;;;-3.39;100.00
12666;BME280;58531;59.050;17.416;2023-02-28T05:13:45;102090.97;;;-3.35;100.00
12666;BME280;58531;59.050;17.416;2023-02-28T05:16:14;102091.56;;;-3.29;100.00
12666;BME280;58531;59.050;17.416;2023-02-28T05:18:42;102088.97;;;-3.29;100.00
12666;BME280;58531;59.050;17.416;2023-02-28T05:21:23;102091.28;;;-3.19;100.00
12666;BME280;58531;59.050;17.416;2023-02-28T05:23:50;102090.97;;;-3.09;100.00
12666;BME280;58531;59.050;17.416;2023-02-28T05:26:17;102089.28;;;-3.14;100.00
12666;BME280;58531;59.050;17.416;2023-02-28T05:28:44;102087.28;;;-3.08;100.00
12666;BME280;58531;59.050;17.416;2023-02-28T05:31:11;102089.59;;;-2.90;100.00
12666;BME280;58531;59.050;17.416;2023-02-28T05:33:40;102101.56;;;-2.89;100.00
12666;BME280;58531;59.050;17.416;2023-02-28T05:36:07;102108.50;;;-2.84;100.00
12666;BME280;58531;59.050;17.416;2023-02-28T05:38:34;102102.78;;;-2.69;100.00
12666;BME280;58531;59.050;17.416;2023-02-28T05:41:05;102096.00;;;-2.53;100.00
12666;BME280;58531;59.050;17.416;2023-02-28T05:43:33;102096.94;;;-2.58;100.00
12666;BME280;58531;59.050;17.416;2023-02-28T05:46:02;102105.38;;;-2.52;100.00
12666;BME280;58531;59.050;17.416;2023-02-28T05:48:29;102106.94;;;-2.68;100.00
12666;BME280;58531;59.050;17.416;2023-02-28T05:50:58;102110.31;;;-2.76;100.00
12666;BME280;58531;59.050;17.416;2023-02-28T05:53:25;102116.34;;;-2.84;100.00
12666;BME280;58531;59.050;17.416;2023-02-28T05:55:52;102121.84;;;-2.77;100.00
12666;BME280;58531;59.050;17.416;2023-02-28T05:58:19;102120.78;;;-2.76;100.00
12666;BME280;58531;59.050;17.416;2023-02-28T06:00:46;102121.72;;;-2.81;100.00
12666;BME280;58531;59.050;17.416;2023-02-28T06:03:13;102123.13;;;-2.83;100.00
12666;BME280;58531;59.050;17.416;2023-02-28T06:05:40;102122.66;;;-2.85;100.00
12666;BME280;58531;59.050;17.416;2023-02-28T06:08:08;102125.88;;;-2.88;100.00
12666;BME280;58531;59.050;17.416;2023-02-28T06:10:35;102128.03;;;-2.90;100.00
12666;BME280;58531;59.050;17.416;2023-02-28T06:13:03;102132.78;;;-2.92;100.00
12666;BME280;58531;59.050;17.416;2023-02-28T06:15:30;102130.94;;;-3.00;100.00
12666;BME280;58531;59.050;17.416;2023-02-28T06:17:57;102134.91;;;-3.03;100.00
12666;BME280;58531;59.050;17.416;2023-02-28T06:20:26;102129.56;;;-3.06;100.00
12666;BME280;58531;59.050;17.416;2023-02-28T06:22:55;102132.78;;;-3.09;100.00
12666;BME280;58531;59.050;17.416;2023-02-28T06:25:25;102135.38;;;-3.09;100.00
12666;BME280;58531;59.050;17.416;2023-02-28T06:27:52;102133.25;;;-3.07;100.00
12666;BME280;58531;59.050;17.416;2023-02-28T06:30:20;102132.63;;;-3.04;100.00
12666;BME280;58531;59.050;17.416;2023-02-28T06:32:50;102146.94;;;-2.93;100.00
12666;BME280;58531;59.050;17.416;2023-02-28T06:35:17;102145.09;;;-2.84;100.00
12666;BME280;58531;59.050;17.416;2023-02-28T06:37:44;102141.88;;;-2.81;100.00
12666;BME280;58531;59.050;17.416;2023-02-28T06:40:13;102149.38;;;-2.71;100.00
12666;BME280;58531;59.050;17.416;2023-02-28T06:42:41;102147.06;;;-2.64;100.00
12666;BME280;58531;59.050;17.416;2023-02-28T06:45:11;102153.50;;;-2.45;100.00
12666;BME280;58531;59.050;17.416;2023-02-28T06:47:40;102149.16;;;-2.07;100.00
12666;BME280;58531;59.050;17.416;2023-02-28T06:50:09;102151.16;;;-1.75;100.00
12666;BME280;58531;59.050;17.416;2023-02-28T06:52:37;102151.84;;;-1.58;100.00
12666;BME280;58531;59.050;17.416;2023-02-28T06:55:05;102153.66;;;-1.50;100.00
12666;BME280;58531;59.050;17.416;2023-02-28T06:57:33;102152.66;;;-0.88;100.00
12666;BME280;58531;59.050;17.416;2023-02-28T07:00:04;102149.47;;;0.28;100.00
12666;BME280;58531;59.050;17.416;2023-02-28T07:02:33;102157.88;;;1.48;100.00
12666;BME280;58531;59.050;17.416;2023-02-28T07:05:00;102156.34;;;2.51;100.00
12666;BME280;58531;59.050;17.416;2023-02-28T07:07:26;102152.91;;;3.01;100.00
12666;BME280;58531;59.050;17.416;2023-02-28T07:09:53;102155.84;;;3.75;100.00
12666;BME280;58531;59.050;17.416;2023-02-28T07:12:20;102154.91;;;3.64;96.63
12666;BME280;58531;59.050;17.416;2023-02-28T07:14:47;102151.69;;;3.96;93.33
12666;BME280;58531;59.050;17.416;2023-02-28T07:17:15;102151.88;;;4.84;88.89
12666;BME280;58531;59.050;17.416;2023-02-28T07:19:42;102156.34;;;5.39;94.36
12666;BME280;58531;59.050;17.416;2023-02-28T07:22:09;102153.34;;;5.77;80.16
12666;BME280;58531;59.050;17.416;2023-02-28T07:24:36;102159.63;;;5.98;89.09
12666;BME280;58531;59.050;17.416;2023-02-28T07:27:03;102163.84;;;6.57;80.91
12666;BME280;58531;59.050;17.416;2023-02-28T07:29:30;102154.41;;;5.69;88.30
12666;BME280;58531;59.050;17.416;2023-02-28T07:31:57;102158.72;;;4.11;93.57
12666;BME280;58531;59.050;17.416;2023-02-28T07:34:25;102148.25;;;3.32;90.76
12666;BME280;58531;59.050;17.416;2023-02-28T07:36:53;102158.97;;;2.51;100.00
12666;BME280;58531;59.050;17.416;2023-02-28T07:39:20;102150.34;;;2.05;100.00
12666;BME280;58531;59.050;17.416;2023-02-28T07:41:50;102156.00;;;1.76;97.85
12666;BME280;58531;59.050;17.416;2023-02-28T07:44:17;102159.16;;;1.81;100.00
12666;BME280;58531;59.050;17.416;2023-02-28T07:46:43;102152.91;;;2.01;100.00
12666;BME280;58531;59.050;17.416;2023-02-28T07:49:10;102152.63;;;2.06;100.00
12666;BME280;58531;59.050;17.416;2023-02-28T07:51:39;102162.41;;;1.90;99.98
12666;BME280;58531;59.050;17.416;2023-02-28T07:54:05;102160.38;;;1.99;100.00
12666;BME280;58531;59.050;17.416;2023-02-28T07:56:33;102156.19;;;2.14;100.00
12666;BME280;58531;59.050;17.416;2023-02-28T07:58:59;102153.31;;;2.19;100.00
12666;BME280;58531;59.050;17.416;2023-02-28T08:01:27;102153.38;;;2.22;96.35
12666;BME280;58531;59.050;17.416;2023-02-28T08:03:53;102149.56;;;2.20;96.71
12666;BME280;58531;59.050;17.416;2023-02-28T08:06:24;102146.94;;;2.35;97.18
12666;BME280;58531;59.050;17.416;2023-02-28T08:08:53;102146.06;;;2.31;95.04
12666;BME280;58531;59.050;17.416;2023-02-28T08:11:21;102137.13;;;2.35;94.34
12666;BME280;58531;59.050;17.416;2023-02-28T08:13:48;102138.34;;;2.38;94.62
12666;BME280;58531;59.050;17.416;2023-02-28T08:16:15;102138.25;;;2.50;94.36
12666;BME280;58531;59.050;17.416;2023-02-28T08:18:46;102125.59;;;2.59;93.88
12666;BME280;58531;59.050;17.416;2023-02-28T08:21:13;102131.03;;;2.66;96.21
12666;BME280;58531;59.050;17.416;2023-02-28T08:23:40;102135.63;;;2.69;91.80
12666;BME280;58531;59.050;17.416;2023-02-28T08:26:08;102127.97;;;2.79;92.01
12666;BME280;58531;59.050;17.416;2023-02-28T08:28:35;102135.31;;;2.89;91.70
12666;BME280;58531;59.050;17.416;2023-02-28T08:31:07;102135.47;;;2.96;89.92
12666;BME280;58531;59.050;17.416;2023-02-28T08:33:34;102124.41;;;3.10;90.75
12666;BME280;58531;59.050;17.416;2023-02-28T08:36:00;102127.06;;;3.29;96.10
12666;BME280;58531;59.050;17.416;2023-02-28T08:38:27;102121.69;;;3.44;88.27
12666;BME280;58531;59.050;17.416;2023-02-28T08:40:58;102124.59;;;3.58;88.08
12666;BME280;58531;59.050;17.416;2023-02-28T08:43:27;102121.81;;;3.70;90.22
12666;BME280;58531;59.050;17.416;2023-02-28T08:45:55;102120.81;;;3.78;85.44
12666;BME280;58531;59.050;17.416;2023-02-28T08:48:22;102120.19;;;3.88;83.42
12666;BME280;58531;59.050;17.416;2023-02-28T08:50:55;102118.88;;;3.97;82.44
12666;BME280;58531;59.050;17.416;2023-02-28T08:53:22;102109.47;;;4.00;82.52
12666;BME280;58531;59.050;17.416;2023-02-28T08:55:56;102113.75;;;4.08;82.25
12666;BME280;58531;59.050;17.416;2023-02-28T08:58:23;102111.63;;;4.17;82.29
12666;BME280;58531;59.050;17.416;2023-02-28T09:00:51;102112.25;;;4.33;80.71
12666;BME280;58531;59.050;17.416;2023-02-28T09:03:18;102116.78;;;4.36;80.54
12666;BME280;58531;59.050;17.416;2023-02-28T09:05:52;102116.09;;;4.39;78.53
12666;BME280;58531;59.050;17.416;2023-02-28T09:08:19;102123.31;;;4.42;79.49
12666;BME280;58531;59.050;17.416;2023-02-28T09:10:46;102124.13;;;4.46;78.55
12666;BME280;58531;59.050;17.416;2023-02-28T09:13:12;102130.44;;;4.38;79.23
12666;BME280;58531;59.050;17.416;2023-02-28T09:15:39;102125.91;;;4.38;78.77
12666;BME280;58531;59.050;17.416;2023-02-28T09:18:08;102126.78;;;4.46;77.19
12666;BME280;58531;59.050;17.416;2023-02-28T09:20:37;102127.59;;;4.50;78.73
12666;BME280;58531;59.050;17.416;2023-02-28T09:23:05;102121.66;;;4.56;77.87
12666;BME280;58531;59.050;17.416;2023-02-28T09:25:32;102116.13;;;4.68;77.30
12666;BME280;58531;59.050;17.416;2023-02-28T09:27:59;102116.22;;;4.75;77.30
12666;BME280;58531;59.050;17.416;2023-02-28T09:30:26;102115.31;;;4.93;76.80
12666;BME280;58531;59.050;17.416;2023-02-28T09:32:53;102119.34;;;5.13;75.52
12666;BME280;58531;59.050;17.416;2023-02-28T09:35:22;102107.81;;;5.32;73.06
12666;BME280;58531;59.050;17.416;2023-02-28T09:37:50;102123.97;;;5.56;72.19
12666;BME280;58531;59.050;17.416;2023-02-28T09:40:18;102117.81;;;5.82;73.05
12666;BME280;58531;59.050;17.416;2023-02-28T09:42:47;102117.88;;;5.92;72.67
12666;BME280;58531;59.050;17.416;2023-02-28T09:45:22;102112.38;;;6.14;70.44
12666;BME280;58531;59.050;17.416;2023-02-28T09:47:51;102106.03;;;6.26;69.64
12666;BME280;58531;59.050;17.416;2023-02-28T09:50:31;102102.50;;;6.08;69.10
12666;BME280;58531;59.050;17.416;2023-02-28T09:53:04;102095.28;;;6.05;69.02
12666;BME280;58531;59.050;17.416;2023-02-28T09:55:36;102089.19;;;6.01;69.00
12666;BME280;58531;59.050;17.416;2023-02-28T09:58:05;102075.19;;;6.00;69.43
12666;BME280;58531;59.050;17.416;2023-02-28T10:00:40;102092.88;;;5.86;70.65
12666;BME280;58531;59.050;17.416;2023-02-28T10:03:20;102075.63;;;5.66;71.17
12666;BME280;58531;59.050;17.416;2023-02-28T10:05:56;102087.34;;;5.65;70.37
12666;BME280;58531;59.050;17.416;2023-02-28T10:08:27;102081.97;;;5.58;69.92
12666;BME280;58531;59.050;17.416;2023-02-28T10:10:58;102075.16;;;5.57;69.76
12666;BME280;58531;59.050;17.416;2023-02-28T10:13:31;102074.75;;;5.55;70.70
12666;BME280;58531;59.050;17.416;2023-02-28T10:16:03;102070.66;;;5.61;70.65
12666;BME280;58531;59.050;17.416;2023-02-28T10:18:40;102078.34;;;5.77;70.04
12666;BME280;58531;59.050;17.416;2023-02-28T10:21:15;102073.94;;;5.91;69.08
12666;BME280;58531;59.050;17.416;2023-02-28T10:23:43;102078.63;;;6.08;68.29
12666;BME280;58531;59.050;17.416;2023-02-28T10:26:14;102088.56;;;6.18;66.85
12666;BME280;58531;59.050;17.416;2023-02-28T10:28:42;102087.03;;;6.17;67.61
12666;BME280;58531;59.050;17.416;2023-02-28T10:31:11;102084.09;;;6.29;67.70
12666;BME280;58531;59.050;17.416;2023-02-28T10:33:41;102080.31;;;6.30;68.40
12666;BME280;58531;59.050;17.416;2023-02-28T10:36:12;102081.47;;;6.36;66.86
12666;BME280;58531;59.050;17.416;2023-02-28T10:38:40;102083.44;;;6.49;66.54
12666;BME280;58531;59.050;17.416;2023-02-28T10:41:08;102088.38;;;6.47;66.98
12666;BME280;58531;59.050;17.416;2023-02-28T10:43:36;102088.81;;;6.60;66.63
12666;BME280;58531;59.050;17.416;2023-02-28T10:46:11;102077.13;;;6.75;65.91
12666;BME280;58531;59.050;17.416;2023-02-28T10:48:42;102095.75;;;6.82;64.66
12666;BME280;58531;59.050;17.416;2023-02-28T10:51:13;102090.09;;;6.94;64.55
12666;BME280;58531;59.050;17.416;2023-02-28T10:53:47;102095.00;;;6.92;64.74
12666;BME280;58531;59.050;17.416;2023-02-28T10:56:17;102101.16;;;7.09;64.40
12666;BME280;58531;59.050;17.416;2023-02-28T10:58:52;102089.44;;;7.24;63.03
12666;BME280;58531;59.050;17.416;2023-02-28T11:01:21;102098.94;;;7.29;62.23
12666;BME280;58531;59.050;17.416;2023-02-28T11:03:48;102096.66;;;7.41;62.90
12666;BME280;58531;59.050;17.416;2023-02-28T11:06:20;102094.78;;;7.45;64.26
12666;BME280;58531;59.050;17.416;2023-02-28T11:08:50;102094.41;;;7.50;63.17
12666;BME280;58531;59.050;17.416;2023-02-28T11:11:19;102089.91;;;7.65;62.60
12666;BME280;58531;59.050;17.416;2023-02-28T11:13:48;102095.22;;;7.75;61.74
12666;BME280;58531;59.050;17.416;2023-02-28T11:16:16;102095.22;;;7.86;61.87
12666;BME280;58531;59.050;17.416;2023-02-28T11:18:47;102089.16;;;7.85;62.02
12666;BME280;58531;59.050;17.416;2023-02-28T11:21:18;102093.69;;;7.99;60.80
12666;BME280;58531;59.050;17.416;2023-02-28T11:23:47;102090.28;;;8.02;60.78
12666;BME280;58531;59.050;17.416;2023-02-28T11:26:16;102092.56;;;8.07;60.81
12666;BME280;58531;59.050;17.416;2023-02-28T11:29:09;102084.19;;;8.25;60.42
12666;BME280;58531;59.050;17.416;2023-02-28T11:31:36;102072.78;;;8.32;59.71
12666;BME280;58531;59.050;17.416;2023-02-28T11:34:26;102074.69;;;8.35;59.52
12666;BME280;58531;59.050;17.416;2023-02-28T11:36:57;102083.00;;;8.44;59.24
12666;BME280;58531;59.050;17.416;2023-02-28T11:39:25;102086.75;;;8.64;59.29
12666;BME280;58531;59.050;17.416;2023-02-28T11:42:11;102074.56;;;8.70;57.23
12666;BME280;58531;59.050;17.416;2023-02-28T11:44:51;102073.78;;;8.69;57.66
12666;BME280;58531;59.050;17.416;2023-02-28T11:47:28;102070.75;;;8.71;58.25
12666;BME280;58531;59.050;17.416;2023-02-28T11:50:13;102070.81;;;8.53;57.27
12666;BME280;58531;59.050;17.416;2023-02-28T11:52:48;102070.41;;;8.55;57.39
12666;BME280;58531;59.050;17.416;2023-02-28T11:55:23;102073.84;;;8.55;58.00
12666;BME280;58531;59.050;17.416;2023-02-28T12:01:07;102078.44;;;8.51;56.66
12666;BME280;58531;59.050;17.416;2023-02-28T12:03:43;102078.81;;;8.53;56.84
12666;BME280;58531;59.050;17.416;2023-02-28T12:06:18;102074.59;;;8.56;55.92
12666;BME280;58531;59.050;17.416;2023-02-28T12:08:58;102062.81;;;8.57;56.00
12666;BME280;58531;59.050;17.416;2023-02-28T12:11:35;102064.00;;;8.45;56.03
12666;BME280;58531;59.050;17.416;2023-02-28T12:14:35;102051.38;;;8.63;56.31
12666;BME280;58531;59.050;17.416;2023-02-28T12:17:20;102056.97;;;8.86;54.65
12666;BME280;58531;59.050;17.416;2023-02-28T12:19:57;102049.72;;;8.94;54.40
12666;BME280;58531;59.050;17.416;2023-02-28T12:22:29;102055.13;;;8.80;55.25
12666;BME280;58531;59.050;17.416;2023-02-28T12:25:30;102048.25;;;8.86;55.41
12666;BME280;58531;59.050;17.416;2023-02-28T12:28:03;102050.06;;;8.96;53.89
12666;BME280;58531;59.050;17.416;2023-02-28T12:30:33;102044.88;;;8.75;55.13
12666;BME280;58531;59.050;17.416;2023-02-28T12:33:03;102056.28;;;8.79;54.87
12666;BME280;58531;59.050;17.416;2023-02-28T12:35:34;102050.16;;;8.78;55.17
12666;BME280;58531;59.050;17.416;2023-02-28T12:38:05;102048.31;;;8.72;54.57
12666;BME280;58531;59.050;17.416;2023-02-28T12:40:43;102049.50;;;8.57;55.84
12666;BME280;58531;59.050;17.416;2023-02-28T12:43:13;102043.41;;;8.60;55.00
12666;BME280;58531;59.050;17.416;2023-02-28T12:45:44;102040.34;;;8.58;55.27
12666;BME280;58531;59.050;17.416;2023-02-28T12:48:17;102045.00;;;8.40;55.80
12666;BME280;58531;59.050;17.416;2023-02-28T12:50:45;102046.16;;;8.32;56.03
12666;BME280;58531;59.050;17.416;2023-02-28T12:53:17;102050.34;;;8.26;56.48
12666;BME280;58531;59.050;17.416;2023-02-28T12:55:54;102035.53;;;8.11;56.43
12666;BME280;58531;59.050;17.416;2023-02-28T12:58:29;102051.13;;;8.02;56.99
12666;BME280;58531;59.050;17.416;2023-02-28T13:01:21;102055.69;;;8.09;56.30